La Mesa, Texas
Current Conditions -  °F | °C
As of 8:55 AM on Wednesday 22 Oct 2014 (Local Time) from KGNC Reporting Station
Broken Clouds Broken Clouds  
Wind Chill: 62°   Ceiling: 4300
Heat Index: 62°   Visibility: 7mi
Dew Point: 60°   Wind: 0mph
Humidity: 94%   Direction: NA
Pressure: 30.13"   Gusts: NA
Location:  32.7457°N, 101.939°W
Report Text: KGNC 221355Z AUTO 00000KT 7SM SCT016 SCT021 BKN043 17/16 A3013 RMK AO2 T01650156
Loading
Personal Weather Stations






























Interactive Weather Map
Tropical Storm Tracking
New forecast layout! Learn more

10-Day Weather Forecast

Advertisements
Track Severe Weather on mobile